Time;durP1;ratioP1;P1;durP2;ratioP2;P2;SDS_P1;SDS_P2;PMS_P1;PMS_P2;Temp;Humidity;BMP_temperature;BMP_pressure;BME280_temperature;BME280_humidity;BME280_pressure;Samples;Min_cycle;Max_cycle;Signal;HPM_P1;HPM_P2
2023/04/21 00:01:17;;;;;;;53.57;44.97;;;5.40;99.90;;;;;;5059908;28;20189;-52
2023/04/21 00:03:42;;;;;;;57.88;45.25;;;5.40;99.90;;;;;;5058357;28;20431;-52
2023/04/21 00:06:08;;;;;;;62.03;42.27;;;5.30;99.90;;;;;;5059592;28;20255;-48
2023/04/21 00:08:39;;;;;;;58.50;42.87;;;5.30;99.90;;;;;;5059723;28;20202;-50
2023/04/21 00:11:07;;;;;;;52.25;41.75;;;5.30;99.90;;;;;;5059474;28;20171;-52
2023/04/21 00:13:34;;;;;;;61.00;43.00;;;5.30;99.90;;;;;;5059903;28;20177;-53
2023/04/21 00:16:01;;;;;;;52.35;38.83;;;5.30;99.90;;;;;;5063366;28;20181;-49
2023/04/21 00:18:27;;;;;;;52.78;40.80;;;5.30;99.90;;;;;;5062927;28;20215;-53
2023/04/21 00:20:52;;;;;;;49.17;39.17;;;5.20;99.90;;;;;;5063230;28;20185;-53
2023/04/21 00:23:18;;;;;;;48.70;38.90;;;5.20;99.90;;;;;;5062674;28;20481;-49
2023/04/21 00:25:44;;;;;;;48.53;34.33;;;5.20;99.90;;;;;;5063037;28;20304;-52
2023/04/21 00:28:09;;;;;;;28.27;24.40;;;5.20;99.90;;;;;;5062236;28;20292;-53
2023/04/21 00:30:35;;;;;;;33.10;26.90;;;5.20;99.90;;;;;;5062500;28;20196;-51
2023/04/21 00:33:01;;;;;;;24.07;20.10;;;5.10;99.90;;;;;;5062193;28;20181;-49
2023/04/21 00:35:26;;;;;;;22.53;20.03;;;5.20;99.90;;;;;;5062330;28;20522;-51
2023/04/21 00:37:52;;;;;;;25.20;18.70;;;5.20;99.90;;;;;;5061564;28;20688;-51
2023/04/21 00:40:18;;;;;;;25.00;20.17;;;5.10;99.90;;;;;;5061448;28;20216;-53
2023/04/21 00:42:44;;;;;;;22.65;18.88;;;5.10;99.90;;;;;;5062813;28;20193;-52
2023/04/21 00:45:10;;;;;;;19.30;16.17;;;5.00;99.90;;;;;;5061839;28;20247;-52
2023/04/21 00:47:35;;;;;;;18.23;16.33;;;4.90;99.90;;;;;;5061455;28;20201;-54
2023/04/21 00:50:03;;;;;;;17.87;16.10;;;4.90;99.90;;;;;;5061626;28;20181;-52
2023/04/21 00:52:29;;;;;;;18.02;16.13;;;4.90;99.90;;;;;;5062521;28;20592;-48
2023/04/21 00:54:55;;;;;;;19.20;17.17;;;4.90;99.90;;;;;;5061804;28;20546;-50
2023/04/21 00:57:21;;;;;;;21.17;16.90;;;4.80;99.90;;;;;;5062705;28;20235;-54
2023/04/21 00:59:48;;;;;;;18.88;17.17;;;4.80;99.90;;;;;;5060549;28;20177;-52
2023/04/21 01:02:15;;;;;;;17.42;15.63;;;4.80;99.90;;;;;;5060622;28;20185;-52
2023/04/21 01:04:42;;;;;;;18.92;15.93;;;4.80;99.90;;;;;;5061769;28;20208;-50
2023/04/21 01:07:08;;;;;;;16.92;15.30;;;4.70;99.90;;;;;;5060938;28;20220;-51
2023/04/21 01:09:34;;;;;;;16.95;15.27;;;4.70;99.90;;;;;;5042874;28;20239;-50
2023/04/21 01:12:05;;;;;;;15.07;13.50;;;4.70;99.90;;;;;;5062316;28;20516;-49
2023/04/21 01:14:31;;;;;;;16.15;14.55;;;4.70;99.90;;;;;;5061812;28;20276;-51
2023/04/21 01:16:57;;;;;;;17.50;15.68;;;4.70;99.90;;;;;;5059165;28;20646;-53
2023/04/21 01:19:25;;;;;;;16.60;15.00;;;4.60;99.90;;;;;;5060121;28;20246;-52
2023/04/21 01:21:56;;;;;;;16.90;15.35;;;4.60;99.90;;;;;;5060528;28;20227;-54
2023/04/21 01:24:23;;;;;;;17.10;15.25;;;4.60;99.90;;;;;;5061813;28;20177;-50
2023/04/21 01:26:48;;;;;;;15.73;14.23;;;4.60;99.90;;;;;;5061328;28;20209;-52
2023/04/21 01:29:17;;;;;;;17.40;15.80;;;4.60;99.90;;;;;;5060904;28;20207;-48
2023/04/21 01:31:44;;;;;;;17.08;14.93;;;4.60;99.90;;;;;;5061854;28;20999;-53
2023/04/21 01:34:10;;;;;;;17.33;15.63;;;4.70;99.90;;;;;;5061284;28;20295;-53
2023/04/21 01:36:36;;;;;;;16.63;15.03;;;4.70;99.90;;;;;;5060105;28;21240;-53
2023/04/21 01:39:02;;;;;;;17.07;15.37;;;4.70;99.90;;;;;;5060929;28;20188;-49
2023/04/21 01:41:28;;;;;;;16.58;14.93;;;4.70;99.90;;;;;;5061008;28;20419;-51
2023/04/21 01:43:54;;;;;;;16.63;15.03;;;4.60;99.90;;;;;;5060759;28;20278;-52
2023/04/21 01:46:20;;;;;;;20.27;16.53;;;4.60;99.90;;;;;;5059516;28;20602;-50
2023/04/21 01:48:46;;;;;;;15.40;13.85;;;4.70;99.90;;;;;;5060882;28;20220;-49
2023/04/21 01:51:11;;;;;;;15.60;14.20;;;4.60;99.90;;;;;;5061145;28;21050;-54
2023/04/21 01:53:37;;;;;;;15.17;13.67;;;4.60;99.90;;;;;;5060981;28;20181;-53
2023/04/21 01:56:03;;;;;;;16.10;14.53;;;4.60;99.90;;;;;;5060076;28;20519;-49
2023/04/21 01:58:28;;;;;;;15.13;13.70;;;4.50;99.90;;;;;;5061025;28;20227;-50
2023/04/21 02:00:54;;;;;;;16.07;14.63;;;4.50;99.90;;;;;;5059686;28;20185;-54
2023/04/21 02:03:19;;;;;;;16.00;14.40;;;4.50;99.90;;;;;;5060119;28;20185;-52
2023/04/21 02:05:45;;;;;;;16.07;14.40;;;4.50;99.90;;;;;;5060685;28;20419;-50
2023/04/21 02:08:11;;;;;;;16.33;14.83;;;4.50;99.90;;;;;;5060473;28;20215;-52
2023/04/21 02:10:36;;;;;;;16.10;14.70;;;4.50;99.90;;;;;;5060583;28;20181;-52
2023/04/21 02:13:02;;;;;;;15.67;14.27;;;4.40;99.90;;;;;;5060627;28;20177;-51
2023/04/21 02:15:28;;;;;;;14.93;13.63;;;4.40;99.90;;;;;;5059371;28;20712;-52
2023/04/21 02:17:53;;;;;;;16.03;14.53;;;4.40;99.90;;;;;;5059998;28;20201;-50
2023/04/21 02:20:19;;;;;;;14.53;13.20;;;4.30;99.90;;;;;;5059937;28;20200;-48
2023/04/21 02:22:44;;;;;;;15.10;13.70;;;4.40;99.90;;;;;;5060032;28;20362;-49
2023/04/21 02:25:10;;;;;;;14.30;12.90;;;4.30;99.90;;;;;;5060208;28;20215;-51
2023/04/21 02:27:36;;;;;;;14.37;12.87;;;4.30;99.90;;;;;;5060088;28;20197;-51
2023/04/21 02:30:02;;;;;;;14.23;13.00;;;4.30;99.90;;;;;;5059898;28;20246;-49
2023/04/21 02:32:31;;;;;;;16.80;13.55;;;4.30;99.90;;;;;;5041681;28;20185;-49
2023/04/21 02:34:56;;;;;;;14.70;13.18;;;4.30;99.90;;;;;;5060055;28;20192;-53
2023/04/21 02:37:23;;;;;;;14.97;13.70;;;4.20;99.90;;;;;;5041892;28;20184;-50
2023/04/21 02:39:48;;;;;;;17.05;14.15;;;4.20;99.90;;;;;;5059223;28;20196;-49
2023/04/21 02:42:14;;;;;;;14.37;12.93;;;4.10;99.90;;;;;;5059303;28;20201;-47
2023/04/21 02:44:39;;;;;;;15.40;13.90;;;4.20;99.90;;;;;;5060137;28;20193;-49
2023/04/21 02:47:05;;;;;;;15.27;13.77;;;4.10;99.90;;;;;;5060177;28;20675;-52
2023/04/21 02:49:30;;;;;;;12.90;11.80;;;4.10;99.90;;;;;;5060211;28;20234;-53
2023/04/21 02:51:57;;;;;;;15.03;13.73;;;4.00;99.90;;;;;;5059813;28;20185;-51
2023/04/21 02:54:23;;;;;;;13.65;12.55;;;4.00;99.90;;;;;;5060324;28;20192;-51
2023/04/21 02:56:48;;;;;;;15.73;14.13;;;4.00;99.90;;;;;;5059372;28;20193;-50
2023/04/21 02:59:17;;;;;;;14.90;13.10;;;4.00;99.90;;;;;;5060182;28;20300;-50
2023/04/21 03:01:42;;;;;;;14.70;13.40;;;4.00;99.90;;;;;;5059038;28;20200;-52
2023/04/21 03:04:08;;;;;;;14.47;12.33;;;4.00;99.90;;;;;;5059220;28;20185;-53
2023/04/21 03:06:33;;;;;;;14.53;13.33;;;3.90;99.90;;;;;;5060432;28;20889;-49
2023/04/21 03:08:59;;;;;;;14.03;12.60;;;3.90;99.90;;;;;;5059162;28;20230;-52
2023/04/21 03:11:25;;;;;;;13.30;11.90;;;3.90;99.90;;;;;;5059695;28;20640;-50
2023/04/21 03:13:50;;;;;;;15.40;12.77;;;3.80;99.90;;;;;;5059961;28;20173;-50
2023/04/21 03:16:16;;;;;;;13.40;12.20;;;3.80;99.90;;;;;;5059845;28;20270;-51
2023/04/21 03:18:42;;;;;;;13.17;12.07;;;3.80;99.90;;;;;;5059951;28;20188;-52
2023/04/21 03:21:08;;;;;;;14.27;12.93;;;3.80;99.90;;;;;;5059524;28;20462;-52
2023/04/21 03:23:33;;;;;;;13.30;12.10;;;3.80;99.90;;;;;;5059879;28;20237;-51
2023/04/21 03:25:59;;;;;;;13.80;12.60;;;3.80;99.90;;;;;;5041048;28;20622;-52
2023/04/21 03:28:24;;;;;;;11.97;10.77;;;3.70;99.90;;;;;;5041920;28;20317;-52
2023/04/21 03:30:50;;;;;;;14.30;12.80;;;3.70;99.90;;;;;;5059054;28;20205;-52
2023/04/21 03:33:16;;;;;;;13.00;11.97;;;3.70;99.90;;;;;;5059293;28;20473;-49
2023/04/21 03:35:41;;;;;;;12.60;11.60;;;3.70;99.90;;;;;;5059321;28;20547;-51
2023/04/21 03:38:07;;;;;;;14.13;12.83;;;3.60;99.90;;;;;;5059706;28;20268;-52
2023/04/21 03:40:32;;;;;;;13.27;11.70;;;3.60;99.90;;;;;;5059469;28;20197;-51
2023/04/21 03:42:58;;;;;;;14.83;13.43;;;3.60;99.90;;;;;;5060091;28;20195;-54
2023/04/21 03:45:24;;;;;;;14.73;13.43;;;3.60;99.90;;;;;;5059220;28;20204;-51
2023/04/21 03:47:53;;;;;;;12.67;11.57;;;3.50;99.90;;;;;;5058989;28;20650;-51
2023/04/21 03:50:19;;;;;;;13.65;12.57;;;3.50;99.90;;;;;;5062900;28;21058;-51
2023/04/21 03:52:45;;;;;;;12.90;11.67;;;3.50;99.90;;;;;;5063443;28;20208;-47
2023/04/21 03:55:10;;;;;;;12.93;11.63;;;3.50;99.90;;;;;;5061418;28;20206;-48
2023/04/21 03:57:40;;;;;;;13.30;12.20;;;3.50;99.90;;;;;;5063865;28;20184;-52
2023/04/21 04:00:08;;;;;;;14.30;12.90;;;3.50;99.90;;;;;;5062737;28;21158;-47
2023/04/21 04:02:35;;;;;;;12.18;10.85;;;3.50;99.90;;;;;;5062243;28;20288;-52
2023/04/21 04:05:02;;;;;;;12.38;11.35;;;3.50;99.90;;;;;;5062423;28;20177;-50
2023/04/21 04:07:28;;;;;;;13.27;11.93;;;3.50;99.90;;;;;;5062783;28;20220;-51
2023/04/21 04:09:53;;;;;;;11.70;10.80;;;3.40;99.90;;;;;;5045016;28;20189;-51
2023/04/21 04:12:19;;;;;;;13.00;11.80;;;3.40;99.90;;;;;;5063019;28;20497;-49
2023/04/21 04:14:45;;;;;;;13.65;12.25;;;3.40;99.90;;;;;;5062295;28;20204;-52
2023/04/21 04:17:11;;;;;;;13.20;11.00;;;3.40;99.90;;;;;;5062658;28;20731;-49
2023/04/21 04:19:36;;;;;;;11.90;10.73;;;3.40;99.90;;;;;;5062824;28;20269;-50
2023/04/21 04:22:02;;;;;;;11.70;10.57;;;3.40;99.90;;;;;;5059031;28;20667;-51
2023/04/21 04:24:28;;;;;;;11.50;10.47;;;3.50;99.90;;;;;;5062314;28;20201;-52
2023/04/21 04:26:54;;;;;;;11.68;10.57;;;3.50;99.90;;;;;;5045249;28;20217;-51
2023/04/21 04:29:21;;;;;;;12.67;11.47;;;3.50;99.90;;;;;;5063109;28;20185;-51
2023/04/21 04:31:48;;;;;;;12.57;11.52;;;3.40;99.90;;;;;;5062420;28;20435;-49
2023/04/21 04:34:14;;;;;;;14.77;12.95;;;3.40;99.90;;;;;;5061809;28;20185;-47
2023/04/21 04:36:41;;;;;;;14.77;13.10;;;3.40;99.90;;;;;;5063259;28;20182;-47
2023/04/21 04:39:09;;;;;;;13.77;12.55;;;3.50;99.90;;;;;;5059608;28;20611;-49
2023/04/21 04:41:36;;;;;;;12.43;11.20;;;3.40;99.90;;;;;;5060830;28;20186;-49
2023/04/21 04:44:03;;;;;;;13.52;11.77;;;3.40;99.90;;;;;;5061399;28;20574;-51
2023/04/21 04:46:32;;;;;;;13.32;11.23;;;3.40;99.90;;;;;;5062767;28;20254;-49
2023/04/21 04:49:02;;;;;;;14.18;11.50;;;3.50;99.90;;;;;;5062570;28;20260;-50
2023/04/21 04:51:27;;;;;;;10.73;9.82;;;3.50;99.90;;;;;;5062490;28;20169;-51
2023/04/21 04:53:53;;;;;;;12.80;11.07;;;3.60;99.90;;;;;;5062326;28;20674;-48
2023/04/21 04:56:19;;;;;;;13.07;11.73;;;3.60;99.90;;;;;;5062598;28;20239;-50
2023/04/21 04:58:47;;;;;;;14.40;13.07;;;3.60;99.90;;;;;;5062503;28;20185;-48
2023/04/21 05:01:14;;;;;;;15.38;12.85;;;3.60;99.90;;;;;;5060409;28;20177;-52
2023/04/21 05:03:40;;;;;;;12.65;11.50;;;3.60;99.90;;;;;;5062338;28;20841;-48
2023/04/21 05:06:06;;;;;;;12.23;11.07;;;3.70;99.90;;;;;;5062293;28;20185;-49
2023/04/21 05:08:32;;;;;;;12.80;11.50;;;3.70;99.90;;;;;;5061891;28;20302;-48
2023/04/21 05:10:58;;;;;;;14.77;13.27;;;3.80;99.90;;;;;;5062116;28;20243;-47
2023/04/21 05:13:23;;;;;;;12.70;11.70;;;3.80;99.90;;;;;;5062245;28;21411;-48
2023/04/21 05:15:49;;;;;;;12.73;11.50;;;3.90;99.90;;;;;;5044242;28;20273;-49
2023/04/21 05:18:14;;;;;;;13.10;11.90;;;4.00;99.90;;;;;;5062103;28;20189;-44
2023/04/21 05:20:41;;;;;;;12.90;11.13;;;4.00;99.90;;;;;;5061767;28;20185;-48
2023/04/21 05:23:07;;;;;;;13.88;12.23;;;4.10;99.90;;;;;;5061653;28;20761;-49
2023/04/21 05:25:32;;;;;;;13.30;11.80;;;4.10;99.90;;;;;;5062087;28;20193;-52
2023/04/21 05:27:58;;;;;;;14.80;13.07;;;4.20;99.90;;;;;;5061890;28;20208;-50
2023/04/21 05:30:24;;;;;;;12.70;11.43;;;4.20;99.90;;;;;;5062103;28;20177;-50
2023/04/21 05:32:49;;;;;;;13.83;12.40;;;4.30;99.90;;;;;;5061677;28;20330;-46
2023/04/21 05:35:15;;;;;;;14.00;12.60;;;4.40;99.90;;;;;;5061870;28;20253;-48
2023/04/21 05:37:40;;;;;;;13.63;12.23;;;4.40;99.90;;;;;;5061512;28;20271;-53
2023/04/21 05:40:06;;;;;;;13.80;12.67;;;4.50;99.90;;;;;;5060423;28;20513;-45
2023/04/21 05:42:32;;;;;;;12.80;11.60;;;4.60;99.90;;;;;;5060237;28;20299;-48
2023/04/21 05:44:58;;;;;;;13.10;11.90;;;4.70;99.90;;;;;;5059599;28;20427;-48
2023/04/21 05:47:23;;;;;;;14.37;12.87;;;4.70;99.90;;;;;;5059399;28;20201;-46
2023/04/21 05:49:52;;;;;;;13.83;12.10;;;4.80;99.90;;;;;;5059441;28;20181;-47
2023/04/21 05:52:20;;;;;;;11.48;10.48;;;4.90;99.90;;;;;;5059870;28;20185;-50
2023/04/21 05:54:45;;;;;;;13.32;12.07;;;5.00;99.90;;;;;;5059065;28;20215;-49
2023/04/21 05:57:11;;;;;;;13.43;12.23;;;5.10;99.90;;;;;;5059780;28;20602;-48
2023/04/21 05:59:37;;;;;;;15.80;12.70;;;5.10;99.90;;;;;;5061003;28;20181;-47
2023/04/21 06:02:02;;;;;;;13.80;12.50;;;5.10;99.90;;;;;;5058630;28;20208;-47
2023/04/21 06:04:28;;;;;;;14.33;12.97;;;5.20;99.90;;;;;;5058596;28;20620;-52
2023/04/21 06:06:54;;;;;;;15.10;12.60;;;5.20;99.90;;;;;;5059476;28;20644;-49
2023/04/21 06:09:19;;;;;;;14.40;12.90;;;5.30;99.90;;;;;;5059178;28;20651;-49
2023/04/21 06:11:45;;;;;;;15.30;12.97;;;5.40;99.90;;;;;;5057485;28;20183;-47
2023/04/21 06:14:11;;;;;;;14.70;13.27;;;5.50;99.90;;;;;;5058612;28;20189;-49
2023/04/21 06:16:36;;;;;;;13.97;12.50;;;5.60;99.90;;;;;;5059205;28;20185;-49
2023/04/21 06:19:02;;;;;;;13.07;11.83;;;5.70;99.90;;;;;;5058619;28;20180;-49
2023/04/21 06:21:27;;;;;;;14.57;13.07;;;5.80;99.90;;;;;;5040501;28;20216;-45
2023/04/21 06:23:53;;;;;;;16.87;15.20;;;5.90;99.90;;;;;;5058738;28;20554;-45
2023/04/21 06:26:19;;;;;;;20.93;15.13;;;6.00;99.90;;;;;;5041505;28;20177;-49
2023/04/21 06:28:45;;;;;;;18.50;14.80;;;6.10;99.90;;;;;;5058534;28;20295;-52
2023/04/21 06:31:14;;;;;;;16.23;14.53;;;6.30;99.90;;;;;;5042046;28;20186;-54
2023/04/21 06:33:40;;;;;;;18.30;14.83;;;6.40;99.90;;;;;;5058694;28;20405;-50
2023/04/21 06:36:06;;;;;;;16.10;13.70;;;6.60;99.90;;;;;;5057980;28;20971;-49
2023/04/21 06:38:32;;;;;;;14.73;13.30;;;6.70;99.90;;;;;;5059434;28;20421;-50
2023/04/21 06:40:58;;;;;;;16.40;14.70;;;6.70;99.90;;;;;;5058826;28;20171;-47
2023/04/21 06:43:24;;;;;;;15.50;13.90;;;6.80;99.90;;;;;;5058531;28;20198;-50
2023/04/21 06:45:49;;;;;;;17.17;13.70;;;7.00;99.90;;;;;;5058740;28;20926;-47
2023/04/21 06:48:15;;;;;;;14.90;13.40;;;7.10;99.90;;;;;;5058670;28;20508;-48
2023/04/21 06:50:43;;;;;;;15.37;13.33;;;7.20;99.90;;;;;;5059257;28;20381;-51
2023/04/21 06:53:10;;;;;;;14.10;12.60;;;7.40;99.90;;;;;;5057982;28;20177;-48
2023/04/21 06:55:35;;;;;;;16.07;14.00;;;7.40;99.90;;;;;;5057546;28;20425;-51
2023/04/21 06:58:01;;;;;;;13.63;12.20;;;7.50;99.90;;;;;;5058603;28;20459;-51
2023/04/21 07:00:27;;;;;;;13.20;11.87;;;7.60;99.90;;;;;;5057989;28;20180;-50
2023/04/21 07:02:52;;;;;;;14.97;12.30;;;7.80;99.90;;;;;;5058643;28;20207;-52
2023/04/21 07:05:18;;;;;;;14.40;12.47;;;7.90;99.90;;;;;;5058561;28;20242;-50
2023/04/21 07:07:44;;;;;;;14.47;13.00;;;7.90;99.90;;;;;;5058422;28;20205;-47
2023/04/21 07:10:09;;;;;;;14.40;12.90;;;8.00;99.90;;;;;;5058800;28;20506;-53
2023/04/21 07:12:35;;;;;;;13.40;12.00;;;8.10;99.90;;;;;;5058258;28;21208;-48
2023/04/21 07:15:01;;;;;;;15.13;13.53;;;8.30;99.90;;;;;;5057205;28;20267;-46
2023/04/21 07:17:26;;;;;;;14.80;13.30;;;8.40;99.90;;;;;;5058657;28;20185;-53
2023/04/21 07:19:52;;;;;;;15.33;13.60;;;8.50;99.90;;;;;;5058836;28;20189;-51
2023/04/21 07:22:17;;;;;;;15.10;12.97;;;8.70;99.90;;;;;;5058198;28;20235;-52
2023/04/21 07:24:43;;;;;;;15.57;13.97;;;8.80;99.90;;;;;;5060265;28;20546;-50
2023/04/21 07:27:08;;;;;;;16.17;14.53;;;9.00;99.90;;;;;;5063376;28;20604;-47
2023/04/21 07:29:34;;;;;;;17.77;15.90;;;9.20;99.90;;;;;;5062673;28;20179;-49
2023/04/21 07:32:00;;;;;;;16.47;14.77;;;9.40;99.90;;;;;;5062611;28;20182;-52
2023/04/21 07:34:26;;;;;;;18.90;14.40;;;9.50;99.90;;;;;;5061041;28;20569;-52
2023/04/21 07:36:54;;;;;;;18.70;14.90;;;9.70;99.90;;;;;;5044353;28;20275;-46
2023/04/21 07:39:20;;;;;;;16.93;15.43;;;9.90;99.90;;;;;;5061935;28;20420;-51
2023/04/21 07:41:46;;;;;;;17.17;15.57;;;10.10;99.90;;;;;;5062472;28;20427;-46
2023/04/21 07:44:12;;;;;;;17.63;15.73;;;10.20;99.90;;;;;;5058440;28;20688;-51
2023/04/21 07:46:37;;;;;;;17.97;16.17;;;10.40;99.90;;;;;;5069807;28;20552;-48
2023/04/21 07:49:03;;;;;;;17.50;15.80;;;10.60;99.90;;;;;;5070405;28;20209;-48
2023/04/21 07:51:29;;;;;;;17.90;16.20;;;10.80;99.90;;;;;;5069240;28;20180;-51
2023/04/21 07:53:54;;;;;;;17.63;15.93;;;11.00;99.90;;;;;;5071337;28;20284;-48
2023/04/21 07:56:20;;;;;;;18.43;16.60;;;11.20;99.90;;;;;;5066377;28;20820;-53
2023/04/21 07:58:46;;;;;;;17.43;15.63;;;11.40;99.90;;;;;;5068811;28;20181;-51
2023/04/21 08:01:12;;;;;;;18.17;16.57;;;11.60;99.90;;;;;;5057336;28;20427;-48
2023/04/21 08:03:37;;;;;;;17.13;15.73;;;11.80;99.90;;;;;;5048627;28;20271;-48
2023/04/21 08:06:03;;;;;;;17.83;16.37;;;12.10;99.90;;;;;;5039979;28;20693;-51
2023/04/21 08:08:29;;;;;;;15.30;14.10;;;12.30;99.90;;;;;;5044550;28;20534;-46
2023/04/21 08:10:55;;;;;;;16.27;15.10;;;12.50;99.90;;;;;;5044635;28;20504;-51
2023/04/21 08:13:24;;;;;;;16.23;15.07;;;12.70;99.90;;;;;;5047201;28;20670;-48
2023/04/21 08:15:52;;;;;;;14.70;13.70;;;13.00;99.90;;;;;;5050726;28;20481;-48
2023/04/21 08:18:18;;;;;;;15.03;13.93;;;13.30;99.90;;;;;;5053850;28;20977;-51
2023/04/21 08:20:46;;;;;;;14.93;13.83;;;13.70;99.90;;;;;;5059921;28;20508;-49
2023/04/21 08:23:13;;;;;;;14.60;13.60;;;14.20;99.90;;;;;;5069508;28;20839;-48
2023/04/21 08:25:38;;;;;;;14.00;13.20;;;14.50;99.90;;;;;;5067472;28;20427;-49
2023/04/21 08:28:04;;;;;;;13.30;12.40;;;15.00;99.90;;;;;;5070265;28;20964;-48
2023/04/21 08:30:30;;;;;;;13.03;12.30;;;15.40;99.00;;;;;;5068059;28;20211;-49
2023/04/21 08:32:55;;;;;;;12.77;12.07;;;16.00;89.90;;;;;;5070437;28;20418;-50
2023/04/21 08:35:21;;;;;;;12.50;11.80;;;16.40;76.30;;;;;;5069665;28;20195;-48
2023/04/21 08:37:47;;;;;;;12.53;11.83;;;16.80;76.50;;;;;;5071367;28;20663;-50
2023/04/21 08:40:13;;;;;;;12.00;11.30;;;17.10;67.90;;;;;;5064686;28;22301;-51
2023/04/21 08:42:38;;;;;;;12.50;11.90;;;17.50;62.40;;;;;;5048463;28;20430;-50
2023/04/21 08:45:05;;;;;;;11.80;11.20;;;17.90;58.30;;;;;;5056049;28;20655;-50
2023/04/21 08:47:32;;;;;;;12.23;11.43;;;18.20;62.30;;;;;;5066928;28;20209;-53
2023/04/21 08:49:58;;;;;;;11.10;10.60;;;18.60;55.70;;;;;;5067793;28;20454;-47
2023/04/21 08:52:24;;;;;;;11.17;10.57;;;18.90;52.20;;;;;;5070240;28;20432;-49
2023/04/21 08:54:52;;;;;;;12.10;11.30;;;19.30;52.80;;;;;;5069956;28;20534;-50
2023/04/21 08:57:18;;;;;;;10.93;10.33;;;19.80;49.30;;;;;;5069401;28;20435;-52
2023/04/21 08:59:44;;;;;;;11.67;11.17;;;20.20;48.60;;;;;;5071677;28;20450;-50
2023/04/21 09:02:13;;;;;;;12.63;12.03;;;20.70;49.40;;;;;;5069105;28;20435;-50
2023/04/21 09:04:50;;;;;;;11.83;11.20;;;21.30;44.60;;;;;;5069131;28;20423;-45
2023/04/21 09:07:33;;;;;;;11.70;11.00;;;22.10;45.40;;;;;;5070188;28;20471;-46
2023/04/21 09:09:59;;;;;;;12.00;11.33;;;22.80;41.10;;;;;;5070173;28;20516;-49
2023/04/21 09:12:26;;;;;;;11.50;11.00;;;23.30;38.70;;;;;;5071013;28;20416;-52
2023/04/21 09:14:52;;;;;;;12.30;11.70;;;23.30;34.20;;;;;;5068710;28;20525;-48
2023/04/21 09:17:31;;;;;;;10.93;10.43;;;23.50;34.10;;;;;;5069297;28;20992;-49
2023/04/21 09:19:57;;;;;;;12.07;11.47;;;23.90;32.40;;;;;;5055204;28;20481;-46
2023/04/21 09:22:26;;;;;;;12.60;11.90;;;24.30;32.10;;;;;;5068742;28;20467;-52
2023/04/21 09:24:58;;;;;;;12.50;11.90;;;24.80;31.00;;;;;;5061004;28;20444;-48
2023/04/21 09:27:24;;;;;;;11.80;11.00;;;25.20;30.10;;;;;;5060575;28;20463;-53
2023/04/21 09:29:50;;;;;;;11.50;11.00;;;24.40;26.80;;;;;;5070174;28;20437;-48
2023/04/21 09:32:18;;;;;;;11.60;10.80;;;24.40;27.30;;;;;;5069590;28;20186;-47
2023/04/21 09:34:44;;;;;;;11.77;11.00;;;24.90;28.90;;;;;;5061955;28;20471;-49
2023/04/21 09:37:12;;;;;;;12.07;11.50;;;25.20;28.00;;;;;;5066787;28;20431;-48
2023/04/21 09:39:37;;;;;;;12.00;11.50;;;25.30;26.70;;;;;;5069981;28;20443;-49
2023/04/21 09:42:03;;;;;;;11.80;11.20;;;25.10;26.40;;;;;;5067980;28;20442;-49
2023/04/21 09:44:30;;;;;;;10.70;10.20;;;25.50;25.60;;;;;;5069318;28;20217;-51
2023/04/21 09:47:03;;;;;;;11.00;10.50;;;25.60;26.00;;;;;;5050385;28;20196;-51
2023/04/21 09:49:30;;;;;;;11.57;10.97;;;26.40;27.20;;;;;;5069421;28;20428;-54
2023/04/21 09:52:02;;;;;;;11.70;11.10;;;27.10;26.90;;;;;;5069552;28;20514;-50
2023/04/21 09:54:30;;;;;;;11.93;11.33;;;27.70;25.60;;;;;;5069256;28;20435;-47
2023/04/21 09:57:00;;;;;;;10.50;9.93;;;27.90;23.60;;;;;;5069426;28;21018;-51
2023/04/21 09:59:34;;;;;;;10.60;10.10;;;27.70;21.80;;;;;;5069457;28;20849;-54
2023/04/21 10:02:03;;;;;;;10.20;9.70;;;28.00;22.90;;;;;;5066452;28;20443;-49
2023/04/21 10:04:30;;;;;;;10.90;10.40;;;27.90;21.50;;;;;;5061903;28;21293;-51
2023/04/21 10:06:59;;;;;;;10.90;10.40;;;28.10;22.30;;;;;;5068949;28;20431;-52
2023/04/21 10:09:30;;;;;;;9.73;9.23;;;27.70;19.90;;;;;;5070007;28;20451;-50
2023/04/21 10:11:56;;;;;;;10.97;10.37;;;27.80;20.30;;;;;;5069226;28;21074;-53
2023/04/21 10:14:24;;;;;;;11.03;10.30;;;27.70;20.30;;;;;;5066122;28;20442;-52
2023/04/21 10:17:02;;;;;;;10.20;9.70;;;27.60;21.00;;;;;;5069160;28;20438;-52
2023/04/21 10:19:27;;;;;;;10.23;9.70;;;28.30;24.10;;;;;;5064520;28;20496;-54
2023/04/21 10:21:56;;;;;;;10.33;9.83;;;28.20;20.20;;;;;;5066760;28;20438;-52
2023/04/21 10:24:22;;;;;;;10.60;10.10;;;28.40;19.90;;;;;;5069062;28;20992;-52
2023/04/21 10:26:50;;;;;;;11.27;10.77;;;28.50;20.00;;;;;;5065631;28;20439;-50
2023/04/21 10:29:27;;;;;;;10.20;9.60;;;28.70;19.70;;;;;;5068469;28;20918;-52
2023/04/21 10:31:53;;;;;;;10.60;10.10;;;28.90;19.50;;;;;;5068866;28;20512;-53
2023/04/21 10:34:21;;;;;;;10.63;10.23;;;28.70;18.40;;;;;;5059036;28;20447;-49
2023/04/21 10:36:56;;;;;;;10.97;10.47;;;28.70;18.80;;;;;;5065160;28;20439;-52
2023/04/21 10:39:25;;;;;;;10.90;10.40;;;29.00;18.30;;;;;;5050550;28;20431;-46
2023/04/21 10:41:53;;;;;;;11.40;10.70;;;28.90;19.10;;;;;;5066211;28;20428;-45
2023/04/21 10:44:21;;;;;;;11.40;10.80;;;29.10;18.60;;;;;;5067171;28;20786;-49
2023/04/21 10:46:51;;;;;;;11.47;10.67;;;29.00;18.20;;;;;;5065308;28;20419;-48
2023/04/21 10:49:20;;;;;;;11.50;11.00;;;28.40;18.90;;;;;;5064744;28;20480;-46
2023/04/21 10:52:04;;;;;;;11.63;11.03;;;28.60;18.40;;;;;;5070152;28;20980;-50
2023/04/21 10:54:55;;;;;;;11.07;10.53;;;28.80;18.90;;;;;;5066581;28;20419;-50
2023/04/21 10:57:21;;;;;;;10.37;9.87;;;28.60;18.60;;;;;;5055176;28;21013;-50
2023/04/21 10:59:48;;;;;;;11.93;11.43;;;28.20;17.90;;;;;;5059761;28;20547;-50
2023/04/21 11:02:16;;;;;;;11.53;11.03;;;28.80;18.90;;;;;;5066976;28;20192;-48
2023/04/21 11:04:48;;;;;;;11.40;10.90;;;29.00;17.70;;;;;;5068919;28;20427;-49
2023/04/21 11:07:16;;;;;;;11.67;10.97;;;29.30;17.40;;;;;;5065923;28;20463;-50
2023/04/21 11:09:43;;;;;;;10.57;10.07;;;29.60;17.30;;;;;;5069201;28;20422;-51
2023/04/21 11:12:12;;;;;;;10.47;9.87;;;29.90;16.80;;;;;;5069167;28;20427;-48
2023/04/21 11:14:43;;;;;;;10.57;9.87;;;29.50;17.00;;;;;;5051401;28;20431;-51
2023/04/21 11:17:15;;;;;;;12.13;11.47;;;28.20;17.20;;;;;;5068955;28;20425;-50
2023/04/21 11:19:49;;;;;;;10.47;9.97;;;28.90;18.60;;;;;;5068362;28;20430;-51
2023/04/21 11:22:18;;;;;;;11.33;10.83;;;29.70;18.40;;;;;;5068765;28;20459;-54
2023/04/21 11:24:45;;;;;;;10.77;10.30;;;30.50;17.90;;;;;;5068831;28;20819;-53
2023/04/21 11:27:13;;;;;;;11.10;10.60;;;30.50;16.50;;;;;;5068067;28;20923;-52
2023/04/21 11:29:39;;;;;;;12.03;11.30;;;31.00;17.70;;;;;;5068254;28;20511;-52
2023/04/21 11:32:08;;;;;;;11.90;11.40;;;31.60;17.30;;;;;;5067763;28;20498;-52
2023/04/21 11:34:37;;;;;;;11.17;10.57;;;31.40;15.70;;;;;;5066282;28;20472;-54
2023/04/21 11:37:03;;;;;;;10.43;10.03;;;31.40;16.10;;;;;;5067556;28;20439;-51
2023/04/21 11:39:29;;;;;;;11.00;10.40;;;31.80;16.40;;;;;;5068138;28;20909;-49
2023/04/21 11:41:55;;;;;;;10.50;9.90;;;30.20;15.10;;;;;;5066139;28;20469;-51
2023/04/21 11:44:34;;;;;;;10.43;9.83;;;30.10;15.60;;;;;;5066162;28;20184;-52
2023/04/21 11:47:10;;;;;;;10.77;10.17;;;28.00;15.80;;;;;;5066121;28;20521;-52
2023/04/21 11:49:47;;;;;;;10.37;9.80;;;27.80;17.90;;;;;;5066292;28;20486;-50
2023/04/21 11:52:44;;;;;;;10.07;9.57;;;28.20;18.60;;;;;;5066101;28;21006;-51
2023/04/21 11:55:14;;;;;;;10.77;10.27;;;28.80;17.90;;;;;;5049680;28;20786;-50
2023/04/21 11:57:40;;;;;;;10.63;10.13;;;28.50;17.70;;;;;;5067810;28;20457;-49
2023/04/21 12:00:10;;;;;;;11.30;10.70;;;28.00;17.60;;;;;;5067915;28;20777;-52
2023/04/21 12:02:36;;;;;;;10.17;9.77;;;27.70;18.20;;;;;;5066079;28;20180;-48
2023/04/21 12:05:07;;;;;;;10.60;10.10;;;28.20;18.80;;;;;;5066318;28;20438;-50
2023/04/21 12:07:35;;;;;;;10.23;9.77;;;28.70;18.20;;;;;;5057910;28;20985;-51
2023/04/21 12:10:07;;;;;;;10.23;9.73;;;29.40;18.20;;;;;;5061305;28;20423;-46
2023/04/21 12:12:39;;;;;;;10.70;10.20;;;30.00;17.20;;;;;;5052927;28;20442;-47
2023/04/21 12:15:06;;;;;;;11.50;10.90;;;30.40;16.30;;;;;;5070399;28;20416;-52
2023/04/21 12:17:46;;;;;;;9.67;9.27;;;30.00;16.00;;;;;;5071550;28;20906;-50
2023/04/21 12:20:14;;;;;;;10.70;10.20;;;28.20;16.80;;;;;;5070385;28;20439;-52
2023/04/21 12:22:40;;;;;;;10.97;10.37;;;27.40;17.00;;;;;;5069491;28;20474;-46
2023/04/21 12:25:06;;;;;;;11.00;10.47;;;27.90;18.60;;;;;;5058887;28;20522;-49
2023/04/21 12:27:32;;;;;;;11.00;10.30;;;28.20;17.60;;;;;;5069020;28;20194;-49
2023/04/21 12:29:57;;;;;;;10.40;9.90;;;28.80;18.50;;;;;;5060865;28;20415;-51
2023/04/21 12:32:24;;;;;;;10.73;10.30;;;29.30;17.70;;;;;;5068216;28;20729;-52